Caldwell, Arkansas
Current Conditions -  °F | °C
As of 11:53 AM on Thursday 27 Nov 2014 (Local Time) from KAWM Reporting Station
Scattered Clouds Scattered Clouds  
Wind Chill: 39°   Ceiling: Unl
Heat Index: 44°   Visibility: 10mi
Dew Point: 30°   Wind: 9mph
Humidity: 58%   Direction: 360°N
Pressure: 30.49"   Gusts: NA
Location:  35.07°N, 90.82°W
Report Text: KAWM 271753Z AUTO 36008KT 320V040 10SM SCT031 07/M01 A3049 RMK AO2 SLP326 T00671011 10072 20028 58001
Loading
Personal Weather Stations






























Interactive Weather Map New forecast layout! Learn more

10-Day Weather Forecast

Advertisements
Track Severe Weather on mobile